createdAt,value
2019-05-20T00:00:14.287Z,9.80
2019-05-20T00:02:43.721Z,9.77
2019-05-20T00:05:13.222Z,10.23
2019-05-20T00:07:42.764Z,10.90
2019-05-20T00:10:12.370Z,10.43
2019-05-20T00:12:41.921Z,9.73
2019-05-20T00:15:11.521Z,9.60
2019-05-20T00:17:40.963Z,10.60
2019-05-20T00:20:10.823Z,9.90
2019-05-20T00:22:40.278Z,9.30
2019-05-20T00:25:11.333Z,9.57
2019-05-20T00:27:40.900Z,10.53
2019-05-20T00:30:11.062Z,10.20
2019-05-20T00:32:42.133Z,10.40
2019-05-20T00:35:11.990Z,11.03
2019-05-20T00:37:41.473Z,10.80
2019-05-20T00:40:11.399Z,10.80
2019-05-20T00:42:41.194Z,11.23
2019-05-20T00:45:10.939Z,12.10
2019-05-20T00:47:40.409Z,11.53
2019-05-20T00:50:10.446Z,11.47
2019-05-20T00:52:39.971Z,12.43
2019-05-20T00:55:18.366Z,11.93
2019-05-20T00:57:47.814Z,12.83
2019-05-20T01:00:17.389Z,13.47
2019-05-20T01:02:56.399Z,12.97
2019-05-20T01:05:18.174Z,13.27
2019-05-20T01:07:47.624Z,13.90
2019-05-20T01:10:17.151Z,12.87
2019-05-20T01:12:46.698Z,13.43
2019-05-20T01:15:16.907Z,12.53
2019-05-20T01:17:46.408Z,12.77
2019-05-20T01:20:16.261Z,12.60
2019-05-20T01:22:45.867Z,13.33
2019-05-20T01:25:15.478Z,13.20
2019-05-20T01:27:44.915Z,14.13
2019-05-20T01:30:16.543Z,15.47
2019-05-20T01:32:46.139Z,14.43
2019-05-20T01:35:15.660Z,11.13
2019-05-20T01:37:45.095Z,11.40
2019-05-20T01:40:15.511Z,11.07
2019-05-20T01:42:44.934Z,5.90
2019-05-20T01:45:14.664Z,16.53
2019-05-20T01:47:44.137Z,21.87
2019-05-20T01:50:13.676Z,25.60
2019-05-20T01:52:43.136Z,22.17
2019-05-20T01:55:13.424Z,24.20
2019-05-20T01:57:42.969Z,24.00
2019-05-20T02:00:14.976Z,23.20
2019-05-20T02:02:45.949Z,28.03
2019-05-20T02:05:15.472Z,31.23
2019-05-20T02:07:44.949Z,31.70
2019-05-20T02:10:15.476Z,31.60
2019-05-20T02:12:45.362Z,30.07
2019-05-20T02:15:29.076Z,31.20
2019-05-20T02:17:58.540Z,32.23
2019-05-20T02:20:28.009Z,30.20
2019-05-20T02:23:16.589Z,30.77
2019-05-20T02:25:47.440Z,28.70
2019-05-20T02:28:17.090Z,29.53
2019-05-20T02:30:46.883Z,31.13
2019-05-20T02:33:16.369Z,29.37
2019-05-20T02:35:45.829Z,27.70
2019-05-20T02:38:15.295Z,25.53
2019-05-20T02:40:44.748Z,25.67
2019-05-20T02:43:14.179Z,26.50
2019-05-20T02:45:43.721Z,27.97
2019-05-20T02:48:13.231Z,29.33
2019-05-20T02:50:42.761Z,30.97
2019-05-20T02:53:12.206Z,31.57
2019-05-20T02:55:41.665Z,29.43
2019-05-20T02:58:11.183Z,28.47
2019-05-20T03:00:40.796Z,26.13
2019-05-20T03:03:10.436Z,24.27
2019-05-20T03:05:40.015Z,26.27
2019-05-20T03:08:09.452Z,27.43
2019-05-20T03:10:38.986Z,34.73
2019-05-20T03:13:08.444Z,34.23
2019-05-20T03:15:37.961Z,37.33
2019-05-20T03:18:07.419Z,38.27
2019-05-20T03:20:36.932Z,36.87
2019-05-20T03:23:06.541Z,34.63
2019-05-20T03:25:36.049Z,34.67
2019-05-20T03:28:05.515Z,34.03
2019-05-20T03:30:34.940Z,34.07
2019-05-20T03:33:04.477Z,34.33
2019-05-20T03:35:33.905Z,34.10
2019-05-20T03:38:03.360Z,32.33
2019-05-20T03:40:32.860Z,35.27
2019-05-20T03:43:02.422Z,33.60
2019-05-20T03:45:31.848Z,31.13
2019-05-20T03:48:02.179Z,30.87
2019-05-20T03:50:31.632Z,33.60
2019-05-20T03:53:01.131Z,32.87
2019-05-20T03:55:30.539Z,39.20
2019-05-20T03:58:00.297Z,39.77
2019-05-20T04:00:44.566Z,43.67
2019-05-20T04:03:15.047Z,43.27
2019-05-20T04:05:44.917Z,42.40
2019-05-20T04:08:14.499Z,37.43
2019-05-20T04:10:44.170Z,31.97
2019-05-20T04:13:13.681Z,31.83
2019-05-20T04:15:43.187Z,32.07
2019-05-20T04:18:12.757Z,34.93
2019-05-20T04:20:42.181Z,42.13
2019-05-20T04:23:11.666Z,48.73
2019-05-20T04:25:41.163Z,46.97
2019-05-20T04:28:10.617Z,51.33
2019-05-20T04:30:40.381Z,57.33
2019-05-20T04:33:09.833Z,59.37
2019-05-20T04:35:39.293Z,61.83
2019-05-20T04:38:10.399Z,67.90
2019-05-20T04:40:40.847Z,72.90
2019-05-20T04:43:12.406Z,74.40
2019-05-20T04:45:42.056Z,71.50
2019-05-20T04:48:13.955Z,70.33
2019-05-20T04:50:42.728Z,70.90
2019-05-20T04:53:12.235Z,70.80
2019-05-20T04:55:41.710Z,71.00
2019-05-20T04:58:11.191Z,69.93
2019-05-20T05:00:55.456Z,70.40
2019-05-20T05:03:26.564Z,70.97
2019-05-20T05:05:56.134Z,71.97
2019-05-20T05:08:25.731Z,71.40
2019-05-20T05:10:55.506Z,72.27
2019-05-20T05:13:25.389Z,72.00
2019-05-20T05:15:55.065Z,70.30
2019-05-20T05:18:24.677Z,70.80
2019-05-20T05:20:54.552Z,72.07
2019-05-20T05:23:24.519Z,68.33
2019-05-20T05:25:54.018Z,69.20
2019-05-20T05:28:23.580Z,66.27
2019-05-20T05:30:53.466Z,66.30
2019-05-20T05:33:22.927Z,65.03
2019-05-20T05:35:53.718Z,63.27
2019-05-20T05:38:23.746Z,60.13
2019-05-20T05:40:53.183Z,60.53
2019-05-20T05:43:22.630Z,62.40
2019-05-20T05:45:52.131Z,61.20
2019-05-20T05:48:21.593Z,59.27
2019-05-20T05:50:51.052Z,60.30
2019-05-20T05:53:20.537Z,61.90
2019-05-20T05:55:50.056Z,60.97
2019-05-20T05:58:19.534Z,59.77
2019-05-20T06:00:49.012Z,60.63
2019-05-20T06:03:18.523Z,59.37
2019-05-20T06:05:48.009Z,60.60
2019-05-20T06:08:18.399Z,60.43
2019-05-20T06:10:48.013Z,59.43
2019-05-20T06:13:17.471Z,58.03
2019-05-20T06:15:46.942Z,54.03
2019-05-20T06:18:17.926Z,53.27
2019-05-20T06:20:47.443Z,55.00
2019-05-20T06:23:16.990Z,53.13
2019-05-20T06:25:46.507Z,54.60
2019-05-20T06:28:15.970Z,51.53
2019-05-20T06:30:46.198Z,52.03
2019-05-20T06:33:15.647Z,52.07
2019-05-20T06:35:45.786Z,53.30
2019-05-20T06:38:16.888Z,52.00
2019-05-20T06:40:46.313Z,51.50
2019-05-20T06:43:15.776Z,51.93
2019-05-20T06:45:45.274Z,50.97
2019-05-20T06:48:14.794Z,51.57
2019-05-20T06:50:44.231Z,49.13
2019-05-20T06:53:13.762Z,50.30
2019-05-20T06:55:43.181Z,50.93
2019-05-20T06:58:12.638Z,49.93
2019-05-20T07:00:42.721Z,51.33
2019-05-20T07:03:12.188Z,51.37
2019-05-20T07:05:41.649Z,51.30
2019-05-20T07:08:11.136Z,49.73
2019-05-20T07:10:40.741Z,48.90
2019-05-20T07:13:10.269Z,49.30
2019-05-20T07:15:39.944Z,47.03
2019-05-20T07:18:09.680Z,47.37
2019-05-20T07:20:39.417Z,49.90
2019-05-20T07:23:08.940Z,51.90
2019-05-20T07:25:39.210Z,52.03
2019-05-20T07:28:08.959Z,53.23
2019-05-20T07:30:38.397Z,53.53
2019-05-20T07:33:07.854Z,54.10
2019-05-20T07:35:37.439Z,53.57
2019-05-20T07:38:06.900Z,54.10
2019-05-20T07:40:36.331Z,54.70
2019-05-20T07:43:05.910Z,55.57
2019-05-20T07:45:36.487Z,51.90
2019-05-20T07:48:06.671Z,54.30
2019-05-20T07:50:39.536Z,56.63
2019-05-20T07:53:11.486Z,53.57
2019-05-20T07:55:49.516Z,54.00
2019-05-20T07:58:22.030Z,57.50
2019-05-20T08:00:51.588Z,57.37
2019-05-20T08:03:21.180Z,57.33
2019-05-20T08:05:50.647Z,58.70
2019-05-20T08:08:20.334Z,56.87
2019-05-20T08:10:49.850Z,57.80
2019-05-20T08:13:19.363Z,57.37
2019-05-20T08:15:48.802Z,60.80
2019-05-20T08:18:20.317Z,60.27
2019-05-20T08:20:49.473Z,58.20
2019-05-20T08:23:18.944Z,59.40
2019-05-20T08:25:48.779Z,60.03
2019-05-20T08:28:18.225Z,60.33
2019-05-20T08:30:47.754Z,61.10
2019-05-20T08:33:17.278Z,58.03
2019-05-20T08:35:46.690Z,56.00
2019-05-20T08:38:16.325Z,49.50
2019-05-20T08:40:48.609Z,49.67
2019-05-20T08:43:16.916Z,50.90
2019-05-20T08:45:47.092Z,50.83
2019-05-20T08:48:16.556Z,51.30
2019-05-20T08:50:45.984Z,45.77
2019-05-20T08:53:15.480Z,46.83
2019-05-20T08:55:45.012Z,44.27
2019-05-20T08:58:14.562Z,43.43
2019-05-20T09:00:44.048Z,40.90
2019-05-20T09:03:13.536Z,39.83
2019-05-20T09:05:44.695Z,39.30
2019-05-20T09:08:14.304Z,38.20
2019-05-20T09:10:43.766Z,39.73
2019-05-20T09:13:13.286Z,37.97
2019-05-20T09:15:45.382Z,41.10
2019-05-20T09:18:14.030Z,40.03
2019-05-20T09:20:43.765Z,41.33
2019-05-20T09:23:13.232Z,47.63
2019-05-20T09:25:42.709Z,45.30
2019-05-20T09:28:12.255Z,45.03
2019-05-20T09:30:42.249Z,44.03
2019-05-20T09:33:11.792Z,43.23
2019-05-20T09:35:41.547Z,41.20
2019-05-20T09:38:20.106Z,43.73
2019-05-20T09:40:47.167Z,46.27
2019-05-20T09:43:17.368Z,46.90
2019-05-20T09:45:46.957Z,45.13
2019-05-20T09:48:16.723Z,45.80
2019-05-20T09:50:46.253Z,43.67
2019-05-20T09:53:15.840Z,42.27
2019-05-20T09:55:45.285Z,44.27
2019-05-20T09:58:14.899Z,42.07
2019-05-20T10:00:44.477Z,48.77
2019-05-20T10:03:13.977Z,43.57
2019-05-20T10:05:43.467Z,43.73
2019-05-20T10:08:13.199Z,40.33
2019-05-20T10:10:42.643Z,39.17
2019-05-20T10:13:12.183Z,36.50
2019-05-20T10:15:41.651Z,34.33
2019-05-20T10:18:11.128Z,33.47
2019-05-20T10:20:40.879Z,35.33
2019-05-20T10:23:15.607Z,33.80
2019-05-20T10:25:43.129Z,33.53
2019-05-20T10:28:12.574Z,33.70
2019-05-20T10:30:42.014Z,34.10
2019-05-20T10:33:11.562Z,32.27
2019-05-20T10:35:41.079Z,32.07
2019-05-20T10:38:11.103Z,30.77
2019-05-20T10:40:40.612Z,30.90
2019-05-20T10:43:10.141Z,31.23
2019-05-20T10:45:39.676Z,30.07
2019-05-20T10:48:09.362Z,28.60
2019-05-20T10:50:38.883Z,28.47
2019-05-20T10:53:08.541Z,28.47
2019-05-20T10:55:37.991Z,29.23
2019-05-20T10:58:07.575Z,27.73
2019-05-20T11:00:37.155Z,28.80
2019-05-20T11:03:06.731Z,28.70
2019-05-20T11:05:36.175Z,28.33
2019-05-20T11:08:06.881Z,28.83
2019-05-20T11:10:36.412Z,29.43
2019-05-20T11:13:05.884Z,28.23
2019-05-20T11:15:35.413Z,27.00
2019-05-20T11:18:05.066Z,30.40
2019-05-20T11:20:34.532Z,33.00
2019-05-20T11:23:03.980Z,35.77
2019-05-20T11:25:33.553Z,31.10
2019-05-20T11:28:03.100Z,29.70
2019-05-20T11:30:32.673Z,26.37
2019-05-20T11:33:02.135Z,26.97
2019-05-20T11:35:31.596Z,26.43
2019-05-20T11:38:01.326Z,26.63
2019-05-20T11:40:30.759Z,29.43
2019-05-20T11:43:00.314Z,31.20
2019-05-20T11:45:29.728Z,27.37
2019-05-20T11:47:59.396Z,28.50
2019-05-20T11:50:28.949Z,27.70
2019-05-20T11:52:58.430Z,25.70
2019-05-20T11:55:27.925Z,27.63
2019-05-20T11:58:14.049Z,28.03
2019-05-20T12:00:28.651Z,28.60
2019-05-20T12:02:58.184Z,27.60
2019-05-20T12:05:27.612Z,26.47
2019-05-20T12:07:57.163Z,25.50
2019-05-20T12:10:26.598Z,26.20
2019-05-20T12:12:56.056Z,25.33
2019-05-20T12:15:27.256Z,24.07
2019-05-20T12:17:56.917Z,24.37
2019-05-20T12:20:26.459Z,25.83
2019-05-20T12:22:55.921Z,25.93
2019-05-20T12:25:25.558Z,25.77
2019-05-20T12:27:54.996Z,26.50
2019-05-20T12:30:24.579Z,26.77
2019-05-20T12:33:16.960Z,27.13
2019-05-20T12:35:25.758Z,27.07
2019-05-20T12:37:55.268Z,27.90
2019-05-20T12:40:26.318Z,26.27
2019-05-20T12:42:57.405Z,25.87
2019-05-20T12:45:26.978Z,25.60
2019-05-20T12:47:56.439Z,28.40
2019-05-20T12:50:25.899Z,25.33
2019-05-20T12:52:55.398Z,24.83
2019-05-20T12:55:24.949Z,24.03
2019-05-20T12:57:54.476Z,25.33
2019-05-20T13:00:24.009Z,25.47
2019-05-20T13:02:53.425Z,25.60
2019-05-20T13:05:22.890Z,25.53
2019-05-20T13:07:53.956Z,24.43
2019-05-20T13:10:29.539Z,23.93
2019-05-20T13:12:54.672Z,23.23
2019-05-20T13:15:27.419Z,23.60
2019-05-20T13:17:56.880Z,22.67
2019-05-20T13:20:26.343Z,23.63
2019-05-20T13:22:55.766Z,24.27
2019-05-20T13:25:25.370Z,24.70
2019-05-20T13:27:54.785Z,23.57
2019-05-20T13:30:24.486Z,23.90
2019-05-20T13:32:53.908Z,21.23
2019-05-20T13:35:23.497Z,22.40
2019-05-20T13:37:52.921Z,21.73
2019-05-20T13:40:22.567Z,22.50
2019-05-20T13:42:52.158Z,22.03
2019-05-20T13:45:21.756Z,21.50
2019-05-20T13:47:51.344Z,20.60
2019-05-20T13:50:21.420Z,19.57
2019-05-20T13:52:50.831Z,19.47
2019-05-20T13:55:20.366Z,20.57
2019-05-20T13:57:49.785Z,21.07
2019-05-20T14:00:19.740Z,20.63
2019-05-20T14:02:52.412Z,18.47
2019-05-20T14:05:23.468Z,19.60
2019-05-20T14:07:54.626Z,18.37
2019-05-20T14:10:24.093Z,20.47
2019-05-20T14:12:53.533Z,16.93
2019-05-20T14:15:23.113Z,16.60
2019-05-20T14:17:52.747Z,17.70
2019-05-20T14:20:22.266Z,18.87
2019-05-20T14:22:53.338Z,19.17
2019-05-20T14:25:22.800Z,20.83
2019-05-20T14:27:52.265Z,21.83
2019-05-20T14:30:21.857Z,20.37
2019-05-20T14:32:52.479Z,19.53
2019-05-20T14:35:21.904Z,19.67
2019-05-20T14:37:51.357Z,19.17
2019-05-20T14:40:21.423Z,18.53
2019-05-20T14:42:52.575Z,17.50
2019-05-20T14:45:22.226Z,15.60
2019-05-20T14:47:53.415Z,16.80
2019-05-20T14:50:26.046Z,15.97
2019-05-20T14:52:57.065Z,16.27
2019-05-20T14:55:26.549Z,16.27
2019-05-20T14:57:55.991Z,15.50
2019-05-20T15:00:25.595Z,14.93
2019-05-20T15:02:55.076Z,15.47
2019-05-20T15:05:26.035Z,15.47
2019-05-20T15:07:55.653Z,14.93
2019-05-20T15:10:25.153Z,15.20
2019-05-20T15:12:54.565Z,14.70
2019-05-20T15:15:24.098Z,13.90
2019-05-20T15:17:54.434Z,18.47
2019-05-20T15:20:23.948Z,19.57
2019-05-20T15:22:53.443Z,18.73
2019-05-20T15:25:22.925Z,18.93
2019-05-20T15:27:52.416Z,18.07
2019-05-20T15:30:21.887Z,18.40
2019-05-20T15:32:54.603Z,17.77
2019-05-20T15:35:22.542Z,17.40
2019-05-20T15:37:51.966Z,16.87
2019-05-20T15:40:24.345Z,16.90
2019-05-20T15:42:54.163Z,17.03
2019-05-20T15:45:23.625Z,16.47
2019-05-20T15:47:53.059Z,17.23
2019-05-20T15:50:22.587Z,17.47
2019-05-20T15:52:52.127Z,16.63
2019-05-20T15:55:21.586Z,16.53
2019-05-20T15:57:51.005Z,15.90
2019-05-20T16:00:20.603Z,16.93
2019-05-20T16:02:50.031Z,16.87
2019-05-20T16:05:19.699Z,17.47
2019-05-20T16:07:49.117Z,17.83
2019-05-20T16:10:18.794Z,17.60
2019-05-20T16:12:48.210Z,17.97
2019-05-20T16:15:17.907Z,17.73
2019-05-20T16:17:48.590Z,17.53
2019-05-20T16:20:19.078Z,18.03
2019-05-20T16:22:48.720Z,18.30
2019-05-20T16:25:19.814Z,18.27
2019-05-20T16:27:49.416Z,18.23
2019-05-20T16:30:19.411Z,18.33
2019-05-20T16:32:48.831Z,17.53
2019-05-20T16:35:19.765Z,17.50
2019-05-20T16:37:49.168Z,17.10
2019-05-20T16:40:18.773Z,16.80
2019-05-20T16:42:50.757Z,17.37
2019-05-20T16:45:20.658Z,16.40
2019-05-20T16:47:50.509Z,16.07
2019-05-20T16:50:20.277Z,16.47
2019-05-20T16:52:49.796Z,16.90
2019-05-20T16:55:19.502Z,15.30
2019-05-20T16:57:50.689Z,16.73
2019-05-20T17:00:31.464Z,16.53
2019-05-20T17:02:51.718Z,14.93
2019-05-20T17:05:21.246Z,16.43
2019-05-20T17:07:51.526Z,16.60
2019-05-20T17:10:20.999Z,16.03
2019-05-20T17:12:50.491Z,15.63
2019-05-20T17:15:20.042Z,15.57
2019-05-20T17:17:49.593Z,13.83
2019-05-20T17:20:19.412Z,14.53
2019-05-20T17:22:49.571Z,14.30
2019-05-20T17:25:19.311Z,15.07
2019-05-20T17:27:49.045Z,13.73
2019-05-20T17:30:18.617Z,14.17
2019-05-20T17:32:48.165Z,14.47
2019-05-20T17:35:18.793Z,14.70
2019-05-20T17:37:48.246Z,14.30
2019-05-20T17:40:19.201Z,14.63
2019-05-20T17:42:48.681Z,15.33
2019-05-20T17:45:18.649Z,14.30
2019-05-20T17:47:48.061Z,14.90
2019-05-20T17:50:18.654Z,15.60
2019-05-20T17:52:49.626Z,15.80
2019-05-20T17:55:19.588Z,15.37
2019-05-20T17:57:49.363Z,15.47
2019-05-20T18:00:20.757Z,16.13
2019-05-20T18:02:50.212Z,15.87
2019-05-20T18:05:19.763Z,15.67
2019-05-20T18:07:49.360Z,16.00
2019-05-20T18:10:20.621Z,16.13
2019-05-20T18:12:50.143Z,16.10
2019-05-20T18:15:19.937Z,17.93
2019-05-20T18:17:49.560Z,17.97
2019-05-20T18:20:19.541Z,18.73
2019-05-20T18:22:48.959Z,20.50
2019-05-20T18:25:18.480Z,19.90
2019-05-20T18:27:49.554Z,22.23
2019-05-20T18:30:19.507Z,20.83
2019-05-20T18:32:48.970Z,22.03
2019-05-20T18:35:18.537Z,20.83
2019-05-20T18:37:47.964Z,21.43
2019-05-20T18:40:17.973Z,21.97
2019-05-20T18:42:47.587Z,22.67
2019-05-20T18:45:17.205Z,23.30
2019-05-20T18:47:46.628Z,20.83
2019-05-20T18:50:16.561Z,23.03
2019-05-20T18:52:46.025Z,23.60
2019-05-20T18:55:15.622Z,25.93
2019-05-20T18:57:45.054Z,25.03
2019-05-20T19:00:15.721Z,25.27
2019-05-20T19:02:46.855Z,24.63
2019-05-20T19:05:18.008Z,25.27
2019-05-20T19:07:49.277Z,24.93
2019-05-20T19:10:18.904Z,23.50
2019-05-20T19:12:49.405Z,23.47
2019-05-20T19:15:19.022Z,23.33
2019-05-20T19:17:48.633Z,21.50
2019-05-20T19:20:18.077Z,21.47
2019-05-20T19:22:49.087Z,20.30
2019-05-20T19:25:19.523Z,21.90
2019-05-20T19:27:49.040Z,21.20
2019-05-20T19:30:20.467Z,21.30
2019-05-20T19:32:49.897Z,22.93
2019-05-20T19:35:19.619Z,23.23
2019-05-20T19:37:49.121Z,23.03
2019-05-20T19:40:18.981Z,24.70
2019-05-20T19:42:48.528Z,23.00
2019-05-20T19:45:18.052Z,23.77
2019-05-20T19:47:47.495Z,22.63
2019-05-20T19:50:18.652Z,23.27
2019-05-20T19:52:48.189Z,22.97
2019-05-20T19:55:18.905Z,22.67
2019-05-20T19:57:48.826Z,21.00
2019-05-20T20:00:19.927Z,22.17
2019-05-20T20:02:49.496Z,21.63
2019-05-20T20:05:19.037Z,22.10
2019-05-20T20:07:48.516Z,22.70
2019-05-20T20:10:18.011Z,22.87
2019-05-20T20:12:47.499Z,23.63
2019-05-20T20:15:19.809Z,25.60
2019-05-20T20:17:49.273Z,24.47
2019-05-20T20:20:19.085Z,24.87
2019-05-20T20:22:48.761Z,23.57
2019-05-20T20:25:18.190Z,25.13
2019-05-20T20:27:47.658Z,24.37
2019-05-20T20:30:19.571Z,26.30
2019-05-20T20:32:49.126Z,26.00
2019-05-20T20:35:18.603Z,25.87
2019-05-20T20:37:48.125Z,27.10
2019-05-20T20:40:18.271Z,27.10
2019-05-20T20:42:47.748Z,27.63
2019-05-20T20:45:17.581Z,28.40
2019-05-20T20:47:47.037Z,27.40
2019-05-20T20:50:17.349Z,28.37
2019-05-20T20:52:46.785Z,29.77
2019-05-20T20:55:16.392Z,29.80
2019-05-20T20:57:45.822Z,34.53
2019-05-20T21:00:15.835Z,38.47
2019-05-20T21:02:53.388Z,39.20
2019-05-20T21:05:16.871Z,43.37
2019-05-20T21:07:46.311Z,46.23
2019-05-20T21:10:15.909Z,46.53
2019-05-20T21:12:45.432Z,46.33
2019-05-20T21:15:16.608Z,47.80
2019-05-20T21:17:46.201Z,46.90
2019-05-20T21:20:15.636Z,47.27
2019-05-20T21:22:45.374Z,47.63
2019-05-20T21:25:15.043Z,49.07
2019-05-20T21:27:47.244Z,50.27
2019-05-20T21:30:16.774Z,52.63
2019-05-20T21:32:46.239Z,51.43
2019-05-20T21:35:15.665Z,53.63
2019-05-20T21:37:45.261Z,53.77
2019-05-20T21:40:14.761Z,54.90
2019-05-20T21:42:44.287Z,56.60
2019-05-20T21:45:13.957Z,56.67
2019-05-20T21:47:44.856Z,55.97
2019-05-20T21:50:14.855Z,51.50
2019-05-20T21:52:44.319Z,45.27
2019-05-20T21:55:13.936Z,41.90
2019-05-20T21:57:45.198Z,43.57
2019-05-20T22:00:22.653Z,40.20
2019-05-20T22:02:52.107Z,40.80
2019-05-20T22:05:21.552Z,38.93
2019-05-20T22:07:51.814Z,38.50
2019-05-20T22:10:22.383Z,41.23
2019-05-20T22:12:52.943Z,42.03
2019-05-20T22:15:22.441Z,43.33
2019-05-20T22:17:51.976Z,42.03
2019-05-20T22:20:21.583Z,42.60
2019-05-20T22:23:09.338Z,45.67
2019-05-20T22:25:39.136Z,52.53
2019-05-20T22:28:12.551Z,56.73
2019-05-20T22:30:39.798Z,57.63
2019-05-20T22:33:09.256Z,67.77
2019-05-20T22:35:38.876Z,72.67
2019-05-20T22:38:08.309Z,77.30
2019-05-20T22:40:37.850Z,80.77
2019-05-20T22:43:07.281Z,82.10
2019-05-20T22:45:36.823Z,83.07
2019-05-20T22:48:06.322Z,86.33
2019-05-20T22:50:35.870Z,85.53
2019-05-20T22:53:05.502Z,84.57
2019-05-20T22:55:34.960Z,82.27
2019-05-20T22:58:04.512Z,81.00
2019-05-20T23:00:35.685Z,77.23
2019-05-20T23:03:05.294Z,76.50
2019-05-20T23:05:34.778Z,75.43
2019-05-20T23:08:04.295Z,75.27
2019-05-20T23:10:33.909Z,71.90
2019-05-20T23:13:05.058Z,73.03
2019-05-20T23:15:34.576Z,70.40
2019-05-20T23:18:04.152Z,71.17
2019-05-20T23:20:33.651Z,67.40
2019-05-20T23:23:03.190Z,66.63
2019-05-20T23:25:34.369Z,64.47
2019-05-20T23:28:03.978Z,63.33
2019-05-20T23:30:33.566Z,63.27
2019-05-20T23:33:03.027Z,65.90
2019-05-20T23:35:32.494Z,63.23
2019-05-20T23:38:01.942Z,62.07
2019-05-20T23:40:31.499Z,61.03
2019-05-20T23:43:00.942Z,60.97
2019-05-20T23:45:30.411Z,60.73
2019-05-20T23:47:59.876Z,61.00
2019-05-20T23:50:29.472Z,57.20
2019-05-20T23:52:59.064Z,60.17
2019-05-20T23:55:30.177Z,58.30
2019-05-20T23:58:00.371Z,58.03
